Time;durP1;ratioP1;P1;durP2;ratioP2;P2;SDS_P1;SDS_P2;PMS_P1;PMS_P2;Temp;Humidity;BMP_temperature;BMP_pressure;BME280_temperature;BME280_humidity;BME280_pressure;Samples;Min_cycle;Max_cycle;Signal;HPM_P1;HPM_P2
2023/09/08 00:00:37;;;;;;;16.60;10.00;;;;;;;;;;104129;1285;544928;-76
2023/09/08 00:04:14;;;;;;;15.10;10.20;;;;;;;;;;103813;1290;545935;-74
2023/09/08 00:07:52;;;;;;;17.10;10.30;;;;;;;;;;103660;1292;545113;-74
2023/09/08 00:11:30;;;;;;;17.10;10.20;;;;;;;;;;103736;1289;545339;-75
2023/09/08 00:15:07;;;;;;;15.10;9.10;;;;;;;;;;103824;1290;545016;-74
2023/09/08 00:18:45;;;;;;;18.10;8.90;;;;;;;;;;103713;1291;544936;-74
2023/09/08 00:22:22;;;;;;;15.50;9.60;;;;;;;;;;103818;1295;544911;-74
2023/09/08 00:25:59;;;;;;;15.30;10.00;;;;;;;;;;103998;1289;545049;-76
2023/09/08 00:29:52;;;;;;;16.40;9.00;;;;;;;;;;104617;1282;548133;-77
2023/09/08 00:33:37;;;;;;;13.40;8.00;;;;;;;;;;104648;1285;549459;-77
2023/09/08 00:37:15;;;;;;;13.30;8.90;;;;;;;;;;104630;1284;545357;-77
2023/09/08 00:40:51;;;;;;;14.30;8.80;;;;;;;;;;104592;1285;549424;-77
2023/09/08 00:44:30;;;;;;;13.20;8.20;;;;;;;;;;105534;1277;545466;-78
2023/09/08 00:48:07;;;;;;;14.10;9.20;;;;;;;;;;104737;1281;545212;-76
2023/09/08 00:51:45;;;;;;;14.30;8.50;;;;;;;;;;104782;1285;548200;-77
2023/09/08 00:55:23;;;;;;;13.60;9.20;;;;;;;;;;104586;1283;545452;-76
2023/09/08 00:58:59;;;;;;;13.50;9.50;;;;;;;;;;104649;1285;545476;-77
2023/09/08 01:02:37;;;;;;;16.80;9.30;;;;;;;;;;104699;1283;547780;-77
2023/09/08 01:05:52;;;;;;;14.40;9.10;;;;;;;;;;103760;1292;544942;-77
2023/09/08 01:09:29;;;;;;;13.80;9.00;;;;;;;;;;103731;1292;545659;-74
2023/09/08 01:13:06;;;;;;;17.90;11.50;;;;;;;;;;104503;1285;544899;-74
2023/09/08 01:16:44;;;;;;;18.20;10.90;;;;;;;;;;103792;1292;545313;-75
2023/09/08 01:20:21;;;;;;;15.60;10.00;;;;;;;;;;103817;1295;545146;-77
2023/09/08 01:24:04;;;;;;;14.60;9.60;;;;;;;;;;104325;1285;545674;-74
2023/09/08 01:27:45;;;;;;;16.90;9.40;;;;;;;;;;103501;1293;544958;-74
2023/09/08 01:31:18;;;;;;;16.20;10.20;;;;;;;;;;103765;1292;545252;-74
2023/09/08 01:34:57;;;;;;;13.40;8.20;;;;;;;;;;104357;1285;544949;-74
2023/09/08 01:38:34;;;;;;;15.20;8.80;;;;;;;;;;104060;1288;544871;-76
2023/09/08 01:42:11;;;;;;;14.30;8.30;;;;;;;;;;103545;1298;544838;-75
2023/09/08 01:45:48;;;;;;;14.10;8.30;;;;;;;;;;103750;1289;544972;-76
2023/09/08 01:49:26;;;;;;;11.80;8.10;;;;;;;;;;103857;1289;544787;-75
2023/09/08 01:53:03;;;;;;;12.50;8.50;;;;;;;;;;103781;1289;544914;-74
2023/09/08 01:56:41;;;;;;;12.00;8.10;;;;;;;;;;103718;1291;544716;-74
2023/09/08 02:00:18;;;;;;;15.10;8.90;;;;;;;;;;103791;1289;544902;-74
2023/09/08 02:03:56;;;;;;;16.30;10.10;;;;;;;;;;103657;1289;545002;-75
2023/09/08 02:07:33;;;;;;;16.90;10.50;;;;;;;;;;103860;1288;544972;-75
2023/09/08 02:11:11;;;;;;;16.90;10.60;;;;;;;;;;103724;1291;545799;-75
2023/09/08 02:14:48;;;;;;;14.20;9.70;;;;;;;;;;103989;1289;544799;-76
2023/09/08 02:18:26;;;;;;;15.80;10.70;;;;;;;;;;103877;1289;544981;-75
2023/09/08 02:22:02;;;;;;;14.10;9.80;;;;;;;;;;103786;1290;545374;-76
2023/09/08 02:25:40;;;;;;;16.30;10.30;;;;;;;;;;103717;1289;545286;-74
2023/09/08 02:29:17;;;;;;;16.50;10.50;;;;;;;;;;103974;1289;545019;-74
2023/09/08 02:32:56;;;;;;;15.60;11.10;;;;;;;;;;104027;1294;545431;-75
2023/09/08 02:36:32;;;;;;;16.20;11.00;;;;;;;;;;103796;1292;545543;-74
2023/09/08 02:40:10;;;;;;;13.80;10.60;;;;;;;;;;103774;1291;545457;-75
2023/09/08 02:43:48;;;;;;;13.60;9.30;;;;;;;;;;103740;1293;544861;-74
2023/09/08 02:47:31;;;;;;;14.70;9.70;;;;;;;;;;103597;1296;546273;-75
2023/09/08 02:51:03;;;;;;;16.10;10.60;;;;;;;;;;103829;1288;545079;-75
2023/09/08 02:54:40;;;;;;;17.90;10.60;;;;;;;;;;103742;1302;544785;-76
2023/09/08 02:58:18;;;;;;;14.90;10.30;;;;;;;;;;103740;1292;544994;-76
2023/09/08 03:02:01;;;;;;;15.50;9.10;;;;;;;;;;103459;1291;548000;-75
2023/09/08 03:05:32;;;;;;;16.10;9.40;;;;;;;;;;103806;1292;545627;-76
2023/09/08 03:09:10;;;;;;;13.80;9.60;;;;;;;;;;104034;1292;544728;-76
2023/09/08 03:12:47;;;;;;;17.60;9.90;;;;;;;;;;104105;1286;545521;-75
2023/09/08 03:16:25;;;;;;;15.70;10.00;;;;;;;;;;103764;1292;545066;-76
2023/09/08 03:20:07;;;;;;;14.40;10.40;;;;;;;;;;103745;1289;545036;-75
2023/09/08 03:23:41;;;;;;;13.80;9.50;;;;;;;;;;103801;1290;545344;-77
2023/09/08 03:27:18;;;;;;;15.50;9.70;;;;;;;;;;103813;1292;544696;-74
2023/09/08 03:30:55;;;;;;;15.80;9.20;;;;;;;;;;103836;1287;544962;-75
2023/09/08 03:34:32;;;;;;;14.90;10.10;;;;;;;;;;103832;1289;544896;-74
2023/09/08 03:38:10;;;;;;;15.20;10.90;;;;;;;;;;103540;1295;545443;-74
2023/09/08 03:41:47;;;;;;;16.10;10.70;;;;;;;;;;103720;1291;545327;-75
2023/09/08 03:45:31;;;;;;;12.30;8.40;;;;;;;;;;103618;1291;547982;-75
2023/09/08 03:49:02;;;;;;;12.50;8.30;;;;;;;;;;103776;1290;544841;-75
2023/09/08 03:52:46;;;;;;;14.60;8.00;;;;;;;;;;103608;1291;547804;-76
2023/09/08 03:56:17;;;;;;;12.80;8.80;;;;;;;;;;104061;1292;546481;-75
2023/09/08 03:59:54;;;;;;;14.10;10.00;;;;;;;;;;103725;1290;545006;-74
2023/09/08 04:03:32;;;;;;;19.80;10.30;;;;;;;;;;103851;1289;544939;-76
2023/09/08 04:07:10;;;;;;;24.80;9.60;;;;;;;;;;103880;1289;545710;-74
2023/09/08 04:10:50;;;;;;;28.00;11.80;;;;;;;;;;103814;1295;545434;-75
2023/09/08 04:14:27;;;;;;;27.20;11.00;;;;;;;;;;104086;1289;545083;-75
2023/09/08 04:18:08;;;;;;;22.00;10.30;;;;;;;;;;103546;1294;545330;-75
2023/09/08 04:21:40;;;;;;;19.90;9.50;;;;;;;;;;103781;1289;545064;-76
2023/09/08 04:25:17;;;;;;;21.70;10.70;;;;;;;;;;103761;1292;544712;-76
2023/09/08 04:28:55;;;;;;;17.50;10.00;;;;;;;;;;104110;1289;545576;-75
2023/09/08 04:32:32;;;;;;;16.10;9.90;;;;;;;;;;103820;1289;545913;-76
2023/09/08 04:36:11;;;;;;;21.70;10.60;;;;;;;;;;103748;1292;544779;-75
2023/09/08 04:39:47;;;;;;;27.40;11.10;;;;;;;;;;103770;1292;545053;-76
2023/09/08 04:43:21;;;;;;;38.50;12.20;;;;;;;;;;103810;1289;545419;-74
2023/09/08 04:47:04;;;;;;;34.50;11.30;;;;;;;;;;103849;1288;545094;-74
2023/09/08 04:50:41;;;;;;;23.20;10.70;;;;;;;;;;103505;1289;544814;-76
2023/09/08 04:54:19;;;;;;;26.60;10.30;;;;;;;;;;104098;1289;544766;-75
2023/09/08 04:57:56;;;;;;;22.00;10.00;;;;;;;;;;103774;1289;544931;-75
2023/09/08 05:01:36;;;;;;;17.00;9.20;;;;;;;;;;103767;1292;545777;-75
2023/09/08 05:05:11;;;;;;;16.40;10.60;;;;;;;;;;104089;1288;544731;-75
2023/09/08 05:08:49;;;;;;;14.70;9.30;;;;;;;;;;103931;1291;544892;-74
2023/09/08 05:12:26;;;;;;;15.70;10.80;;;;;;;;;;103764;1292;544769;-75
2023/09/08 05:16:12;;;;;;;14.90;11.10;;;;;;;;;;103631;1289;547806;-76
2023/09/08 05:19:41;;;;;;;14.40;10.00;;;;;;;;;;103853;1294;545022;-74
2023/09/08 05:23:18;;;;;;;14.30;9.70;;;;;;;;;;104010;1290;545325;-75
2023/09/08 05:26:56;;;;;;;12.90;9.70;;;;;;;;;;104021;1292;544961;-76
2023/09/08 05:30:33;;;;;;;15.10;10.50;;;;;;;;;;103856;1292;545189;-75
2023/09/08 05:34:16;;;;;;;13.00;9.00;;;;;;;;;;103421;1292;547834;-75
2023/09/08 05:37:48;;;;;;;13.80;9.00;;;;;;;;;;103738;1291;545005;-76
2023/09/08 05:41:32;;;;;;;14.00;10.10;;;;;;;;;;103650;1295;548172;-75
2023/09/08 05:45:08;;;;;;;15.80;10.00;;;;;;;;;;103594;1291;548142;-76
2023/09/08 05:48:40;;;;;;;16.80;10.80;;;;;;;;;;103821;1289;545985;-75
2023/09/08 05:52:17;;;;;;;16.10;10.40;;;;;;;;;;103814;1292;545175;-75
2023/09/08 05:55:56;;;;;;;17.10;10.60;;;;;;;;;;103799;1292;545997;-76
2023/09/08 05:59:32;;;;;;;16.00;10.80;;;;;;;;;;103840;1289;545841;-75
2023/09/08 06:03:11;;;;;;;17.40;11.10;;;;;;;;;;103790;1295;544975;-76
2023/09/08 06:06:48;;;;;;;20.50;10.90;;;;;;;;;;103928;1289;545107;-75
2023/09/08 06:10:25;;;;;;;20.60;11.50;;;;;;;;;;103886;1292;545960;-77
2023/09/08 06:14:03;;;;;;;20.80;13.20;;;;;;;;;;103934;1289;545441;-75
2023/09/08 06:17:40;;;;;;;22.40;13.50;;;;;;;;;;103884;1289;545724;-75
2023/09/08 06:21:17;;;;;;;21.70;11.90;;;;;;;;;;103929;1289;545646;-75
2023/09/08 06:24:55;;;;;;;19.30;11.40;;;;;;;;;;103694;1289;545064;-76
2023/09/08 06:28:32;;;;;;;20.20;11.40;;;;;;;;;;103776;1289;545044;-75
2023/09/08 06:32:10;;;;;;;19.70;10.90;;;;;;;;;;103822;1289;545130;-74
2023/09/08 06:35:47;;;;;;;19.40;11.40;;;;;;;;;;103864;1289;545480;-76
2023/09/08 06:39:25;;;;;;;22.50;13.30;;;;;;;;;;103442;1294;544912;-74
2023/09/08 06:43:03;;;;;;;21.50;13.00;;;;;;;;;;103598;1293;545043;-75
2023/09/08 06:46:45;;;;;;;21.10;10.70;;;;;;;;;;103553;1291;545695;-74
2023/09/08 06:50:17;;;;;;;19.80;11.10;;;;;;;;;;104675;1284;544890;-75
2023/09/08 06:53:57;;;;;;;21.20;10.30;;;;;;;;;;103837;1292;545024;-75
2023/09/08 06:57:42;;;;;;;19.30;10.30;;;;;;;;;;103850;1291;545373;-74
2023/09/08 07:01:20;;;;;;;15.20;8.90;;;;;;;;;;104004;1292;545384;-73
2023/09/08 07:04:57;;;;;;;14.20;7.90;;;;;;;;;;103784;1289;544982;-76
2023/09/08 07:08:35;;;;;;;14.60;9.00;;;;;;;;;;103980;1289;544744;-76
2023/09/08 07:12:12;;;;;;;14.70;9.60;;;;;;;;;;104046;1292;545928;-75
2023/09/08 07:15:50;;;;;;;14.70;9.40;;;;;;;;;;103788;1289;546167;-75
2023/09/08 07:19:27;;;;;;;14.80;8.50;;;;;;;;;;103999;1291;544983;-75
2023/09/08 07:23:05;;;;;;;14.00;8.50;;;;;;;;;;103823;1289;544866;-75
2023/09/08 07:26:42;;;;;;;17.00;8.90;;;;;;;;;;104502;1283;544905;-75
2023/09/08 07:30:25;;;;;;;13.00;7.90;;;;;;;;;;103614;1289;547940;-76
2023/09/08 07:34:02;;;;;;;12.70;7.80;;;;;;;;;;103627;1289;548100;-75
2023/09/08 07:37:35;;;;;;;12.70;8.40;;;;;;;;;;103729;1291;545107;-75
2023/09/08 07:41:12;;;;;;;13.10;8.30;;;;;;;;;;103984;1289;545115;-75
2023/09/08 07:44:49;;;;;;;13.10;8.30;;;;;;;;;;104557;1282;544951;-74
2023/09/08 07:48:27;;;;;;;11.10;8.30;;;;;;;;;;103831;1289;544833;-75
2023/09/08 07:52:07;;;;;;;11.80;7.60;;;;;;;;;;103717;1289;544853;-74
2023/09/08 07:55:42;;;;;;;12.20;8.90;;;;;;;;;;103846;1289;545602;-72
2023/09/08 07:59:15;;;;;;;12.60;9.00;;;;;;;;;;103695;1290;544771;-74
2023/09/08 08:02:56;;;;;;;13.30;8.40;;;;;;;;;;103779;1290;545570;-75
2023/09/08 08:06:35;;;;;;;13.40;9.10;;;;;;;;;;103834;1289;544805;-74
2023/09/08 08:10:13;;;;;;;14.10;9.70;;;;;;;;;;103783;1291;545308;-74
2023/09/08 08:13:50;;;;;;;12.90;9.30;;;;;;;;;;103793;1289;545411;-74
2023/09/08 08:17:29;;;;;;;14.30;9.10;;;;;;;;;;103798;1289;544966;-75
2023/09/08 08:21:05;;;;;;;13.90;8.70;;;;;;;;;;103834;1295;544778;-74
2023/09/08 08:24:42;;;;;;;13.30;8.40;;;;;;;;;;103741;1292;545285;-75
2023/09/08 08:28:21;;;;;;;13.10;8.60;;;;;;;;;;103831;1289;544868;-74
2023/09/08 08:31:57;;;;;;;14.60;8.60;;;;;;;;;;103684;1292;545927;-75
2023/09/08 08:35:35;;;;;;;13.40;9.10;;;;;;;;;;103638;1292;544795;-76
2023/09/08 08:39:12;;;;;;;11.70;7.90;;;;;;;;;;104004;1289;544703;-73
2023/09/08 08:42:54;;;;;;;10.40;7.70;;;;;;;;;;103689;1292;545497;-75
2023/09/08 08:46:28;;;;;;;13.40;7.10;;;;;;;;;;104037;1291;544803;-75
2023/09/08 08:50:10;;;;;;;13.70;7.20;;;;;;;;;;103707;1292;544973;-72
2023/09/08 08:53:42;;;;;;;12.00;7.50;;;;;;;;;;104090;1286;545368;-73
2023/09/08 08:57:20;;;;;;;11.90;7.20;;;;;;;;;;103796;1289;544774;-72
2023/09/08 09:00:59;;;;;;;10.70;6.20;;;;;;;;;;103751;1295;545422;-72
2023/09/08 09:04:37;;;;;;;11.50;6.50;;;;;;;;;;103935;1288;545940;-74
2023/09/08 09:08:13;;;;;;;10.90;6.90;;;;;;;;;;103787;1290;544781;-75
2023/09/08 09:11:49;;;;;;;11.10;6.70;;;;;;;;;;103765;1291;545584;-76
2023/09/08 09:15:32;;;;;;;10.40;6.80;;;;;;;;;;103801;1293;545928;-72
2023/09/08 09:19:04;;;;;;;11.80;6.90;;;;;;;;;;103829;1289;545442;-74
2023/09/08 09:22:42;;;;;;;12.30;6.60;;;;;;;;;;104161;1289;545793;-75
2023/09/08 09:26:24;;;;;;;11.40;6.80;;;;;;;;;;103790;1290;544982;-73
2023/09/08 09:30:00;;;;;;;9.90;6.50;;;;;;;;;;103797;1289;545455;-74
2023/09/08 09:33:35;;;;;;;10.50;7.40;;;;;;;;;;103957;1292;544853;-75
2023/09/08 09:37:12;;;;;;;10.60;6.70;;;;;;;;;;104051;1290;544986;-74
2023/09/08 09:40:56;;;;;;;12.20;6.60;;;;;;;;;;103544;1291;548130;-73
2023/09/08 09:44:27;;;;;;;10.10;6.50;;;;;;;;;;103766;1290;544720;-75
2023/09/08 09:48:10;;;;;;;12.10;6.20;;;;;;;;;;103496;1291;547927;-71
2023/09/08 09:51:42;;;;;;;11.00;6.60;;;;;;;;;;103760;1289;544710;-72
2023/09/08 09:55:20;;;;;;;10.90;6.60;;;;;;;;;;103882;1292;545645;-71
2023/09/08 09:58:55;;;;;;;11.00;6.90;;;;;;;;;;103793;1289;544760;-73
2023/09/08 10:02:37;;;;;;;10.30;6.70;;;;;;;;;;103680;1289;544977;-72
2023/09/08 10:06:12;;;;;;;11.30;5.90;;;;;;;;;;103740;1290;544891;-74
2023/09/08 10:09:49;;;;;;;9.80;6.10;;;;;;;;;;103644;1291;545075;-74
2023/09/08 10:13:30;;;;;;;10.80;6.40;;;;;;;;;;103835;1289;544773;-71
2023/09/08 10:17:05;;;;;;;11.90;6.90;;;;;;;;;;103794;1292;545395;-73
2023/09/08 10:20:42;;;;;;;9.40;6.50;;;;;;;;;;103734;1289;544980;-74
2023/09/08 10:24:23;;;;;;;10.40;7.00;;;;;;;;;;103775;1289;544747;-74
2023/09/08 10:27:56;;;;;;;9.80;6.60;;;;;;;;;;104150;1287;545012;-74
2023/09/08 10:31:34;;;;;;;12.00;5.70;;;;;;;;;;103682;1289;544986;-75
2023/09/08 10:35:11;;;;;;;10.00;5.90;;;;;;;;;;103712;1290;544952;-72
2023/09/08 10:38:51;;;;;;;10.00;5.80;;;;;;;;;;103747;1289;544915;-75
2023/09/08 10:42:27;;;;;;;10.70;6.30;;;;;;;;;;103755;1290;544743;-75
2023/09/08 10:46:10;;;;;;;9.30;5.80;;;;;;;;;;103869;1292;545019;-72
2023/09/08 10:49:41;;;;;;;9.40;5.50;;;;;;;;;;103800;1296;545033;-72
2023/09/08 10:53:25;;;;;;;10.00;6.40;;;;;;;;;;103474;1291;547992;-71
2023/09/08 10:56:56;;;;;;;10.40;5.70;;;;;;;;;;103786;1292;544942;-74
2023/09/08 11:00:45;;;;;;;10.60;5.80;;;;;;;;;;103766;1292;545047;-74
2023/09/08 11:04:13;;;;;;;10.20;5.80;;;;;;;;;;104409;1286;544779;-74
2023/09/08 11:07:50;;;;;;;11.00;5.70;;;;;;;;;;103591;1295;545392;-74
2023/09/08 11:11:26;;;;;;;10.00;6.10;;;;;;;;;;103767;1292;544717;-76
2023/09/08 11:15:05;;;;;;;9.90;5.70;;;;;;;;;;103610;1291;545474;-71
2023/09/08 11:18:42;;;;;;;12.00;6.10;;;;;;;;;;103811;1292;545025;-76
2023/09/08 11:22:21;;;;;;;9.60;5.50;;;;;;;;;;103696;1292;545215;-75
2023/09/08 11:25:56;;;;;;;9.20;5.20;;;;;;;;;;103796;1289;544878;-74
2023/09/08 11:29:33;;;;;;;8.60;5.20;;;;;;;;;;103644;1302;544983;-72
2023/09/08 11:33:17;;;;;;;10.50;6.00;;;;;;;;;;103865;1289;544928;-74
2023/09/08 11:36:48;;;;;;;11.20;5.80;;;;;;;;;;104082;1288;544887;-74
2023/09/08 11:40:26;;;;;;;10.00;5.50;;;;;;;;;;104369;1286;544952;-72
2023/09/08 11:44:09;;;;;;;8.40;4.80;;;;;;;;;;104282;1283;547899;-74
2023/09/08 11:47:42;;;;;;;11.20;6.00;;;;;;;;;;104830;1292;545508;-72
2023/09/08 11:51:25;;;;;;;7.90;4.90;;;;;;;;;;103962;1295;544819;-74
2023/09/08 11:54:56;;;;;;;9.30;5.80;;;;;;;;;;103912;1289;545231;-73
2023/09/08 11:58:33;;;;;;;8.30;4.70;;;;;;;;;;103777;1288;544937;-72
2023/09/08 12:02:16;;;;;;;9.50;6.10;;;;;;;;;;103568;1293;547929;-75
2023/09/08 12:05:52;;;;;;;9.90;6.60;;;;;;;;;;104025;1289;545212;-72
2023/09/08 12:09:25;;;;;;;9.20;5.70;;;;;;;;;;103492;1295;545627;-72
2023/09/08 12:13:09;;;;;;;8.80;6.00;;;;;;;;;;103425;1295;545938;-72
2023/09/08 12:16:42;;;;;;;10.30;7.10;;;;;;;;;;104064;1292;544927;-74
2023/09/08 12:20:18;;;;;;;9.20;5.40;;;;;;;;;;103593;1291;544968;-75
2023/09/08 12:23:52;;;;;;;9.60;5.80;;;;;;;;;;103848;1292;544805;-75
2023/09/08 12:27:36;;;;;;;10.30;5.80;;;;;;;;;;103809;1292;545837;-74
2023/09/08 12:31:13;;;;;;;8.80;5.30;;;;;;;;;;103855;1289;545001;-73
2023/09/08 12:34:51;;;;;;;8.90;5.30;;;;;;;;;;103352;1295;546231;-71
2023/09/08 12:38:31;;;;;;;8.00;5.00;;;;;;;;;;103977;1292;544705;-72
2023/09/08 12:42:05;;;;;;;7.50;4.60;;;;;;;;;;104023;1293;545002;-74
2023/09/08 12:45:42;;;;;;;8.40;5.40;;;;;;;;;;103809;1289;544856;-74
2023/09/08 12:49:21;;;;;;;7.80;4.90;;;;;;;;;;103626;1292;544958;-73
2023/09/08 12:52:57;;;;;;;8.00;5.10;;;;;;;;;;103769;1288;544919;-73
2023/09/08 12:56:40;;;;;;;9.40;4.80;;;;;;;;;;104142;1285;547804;-75
2023/09/08 13:00:15;;;;;;;10.10;5.80;;;;;;;;;;104142;1288;545695;-72
2023/09/08 13:03:50;;;;;;;8.20;4.80;;;;;;;;;;103864;1291;545377;-74
2023/09/08 13:07:27;;;;;;;9.50;5.30;;;;;;;;;;103781;1290;545230;-72
2023/09/08 13:11:05;;;;;;;10.30;5.90;;;;;;;;;;103745;1294;545060;-72
2023/09/08 13:14:43;;;;;;;8.80;5.30;;;;;;;;;;103723;1289;544811;-75
2023/09/08 13:18:19;;;;;;;7.90;4.60;;;;;;;;;;104007;1289;545853;-71
2023/09/08 13:21:57;;;;;;;8.60;4.80;;;;;;;;;;103735;1292;545775;-75
2023/09/08 13:25:34;;;;;;;8.80;4.80;;;;;;;;;;103704;1291;544760;-75
2023/09/08 13:29:12;;;;;;;13.10;6.30;;;;;;;;;;103720;1291;545405;-75
2023/09/08 13:32:49;;;;;;;10.10;5.20;;;;;;;;;;103778;1294;544935;-73
2023/09/08 13:36:27;;;;;;;9.90;5.20;;;;;;;;;;104080;1292;544845;-72
2023/09/08 13:40:06;;;;;;;9.00;5.20;;;;;;;;;;103774;1291;544779;-73
2023/09/08 13:43:42;;;;;;;8.50;5.10;;;;;;;;;;103720;1292;545920;-73
2023/09/08 13:47:19;;;;;;;8.60;5.40;;;;;;;;;;103688;1292;544896;-74
2023/09/08 13:51:00;;;;;;;8.40;5.40;;;;;;;;;;103744;1291;545741;-74
2023/09/08 13:54:38;;;;;;;11.20;5.40;;;;;;;;;;103681;1294;545594;-74
2023/09/08 13:58:11;;;;;;;10.60;6.60;;;;;;;;;;103756;1290;545025;-74
2023/09/08 14:01:49;;;;;;;9.80;6.20;;;;;;;;;;103686;1291;545262;-73
2023/09/08 14:05:26;;;;;;;12.20;6.00;;;;;;;;;;103535;1295;545045;-74
2023/09/08 14:09:04;;;;;;;11.40;6.30;;;;;;;;;;103776;1292;544983;-76
2023/09/08 14:12:47;;;;;;;8.70;5.50;;;;;;;;;;103607;1291;548037;-74
2023/09/08 14:16:19;;;;;;;10.10;5.60;;;;;;;;;;103772;1292;545172;-73
2023/09/08 14:19:52;;;;;;;8.90;5.30;;;;;;;;;;103753;1290;545214;-76
2023/09/08 14:23:37;;;;;;;9.40;5.80;;;;;;;;;;103835;1295;544847;-74
2023/09/08 14:27:12;;;;;;;8.80;5.50;;;;;;;;;;103738;1292;544958;-75
2023/09/08 14:31:09;;;;;;;9.20;5.40;;;;;;;;;;103632;1291;547982;-75
2023/09/08 14:34:27;;;;;;;9.70;6.20;;;;;;;;;;104094;1288;544941;-75
2023/09/08 14:38:04;;;;;;;10.60;6.40;;;;;;;;;;103683;1295;544948;-74
2023/09/08 14:41:42;;;;;;;10.20;6.10;;;;;;;;;;103869;1289;544645;-75
2023/09/08 14:45:27;;;;;;;9.50;5.90;;;;;;;;;;103527;1293;547770;-74
2023/09/08 14:48:57;;;;;;;9.90;5.40;;;;;;;;;;103787;1288;545556;-75
2023/09/08 14:52:34;;;;;;;9.70;5.20;;;;;;;;;;103614;1291;545045;-74
2023/09/08 14:56:11;;;;;;;8.50;5.00;;;;;;;;;;103743;1291;545164;-74
2023/09/08 14:59:49;;;;;;;10.80;6.00;;;;;;;;;;103624;1292;545274;-75
2023/09/08 15:03:27;;;;;;;8.50;5.30;;;;;;;;;;104175;1289;544995;-72
2023/09/08 15:07:04;;;;;;;8.20;5.10;;;;;;;;;;103633;1291;545418;-74
2023/09/08 15:10:42;;;;;;;8.60;5.20;;;;;;;;;;103753;1295;544838;-74
2023/09/08 15:14:19;;;;;;;9.80;5.00;;;;;;;;;;103632;1295;545501;-74
2023/09/08 15:18:02;;;;;;;8.70;5.00;;;;;;;;;;103545;1295;547790;-72
2023/09/08 15:21:34;;;;;;;10.80;5.30;;;;;;;;;;103720;1291;544765;-73
2023/09/08 15:25:12;;;;;;;8.90;4.70;;;;;;;;;;103743;1290;545051;-73
2023/09/08 15:28:49;;;;;;;8.50;5.10;;;;;;;;;;103790;1295;545170;-74
2023/09/08 15:32:26;;;;;;;8.90;5.00;;;;;;;;;;103701;1291;545096;-72
2023/09/08 15:36:05;;;;;;;8.40;4.60;;;;;;;;;;103760;1289;544908;-74
2023/09/08 15:39:47;;;;;;;7.50;4.00;;;;;;;;;;103576;1291;548003;-75
2023/09/08 15:43:25;;;;;;;8.80;4.70;;;;;;;;;;103598;1289;548230;-74
2023/09/08 15:46:56;;;;;;;8.50;4.70;;;;;;;;;;103844;1289;544794;-72
2023/09/08 15:50:34;;;;;;;9.90;5.10;;;;;;;;;;103717;1291;544858;-72
2023/09/08 15:54:12;;;;;;;10.00;5.00;;;;;;;;;;103751;1292;544734;-75
2023/09/08 15:57:51;;;;;;;8.90;4.50;;;;;;;;;;103745;1289;545875;-72
2023/09/08 16:01:26;;;;;;;7.60;4.10;;;;;;;;;;103822;1289;544764;-73
2023/09/08 16:05:04;;;;;;;8.50;5.00;;;;;;;;;;103633;1291;545588;-76
2023/09/08 16:08:41;;;;;;;10.10;5.00;;;;;;;;;;103693;1289;545103;-74
2023/09/08 16:12:19;;;;;;;8.20;4.90;;;;;;;;;;103765;1289;545361;-74
2023/09/08 16:15:56;;;;;;;8.70;5.00;;;;;;;;;;103997;1289;544752;-73
2023/09/08 16:19:34;;;;;;;10.90;4.90;;;;;;;;;;103971;1289;545048;-77
2023/09/08 16:23:11;;;;;;;9.70;4.60;;;;;;;;;;103901;1289;544764;-74
2023/09/08 16:26:49;;;;;;;8.70;4.50;;;;;;;;;;103865;1288;545125;-74
2023/09/08 16:30:27;;;;;;;9.80;5.00;;;;;;;;;;103735;1295;545266;-73
2023/09/08 16:34:03;;;;;;;9.60;5.30;;;;;;;;;;103728;1292;544832;-72
2023/09/08 16:37:48;;;;;;;11.40;5.50;;;;;;;;;;103538;1291;547821;-76
2023/09/08 16:41:18;;;;;;;20.80;13.90;;;;;;;;;;103719;1289;544908;-77
2023/09/08 16:44:56;;;;;;;104.40;79.00;;;;;;;;;;104086;1289;545031;-75
2023/09/08 16:48:34;;;;;;;67.10;47.00;;;;;;;;;;103643;1291;544692;-72
2023/09/08 16:52:11;;;;;;;34.60;24.30;;;;;;;;;;103693;1292;545680;-73
2023/09/08 16:55:48;;;;;;;35.80;22.70;;;;;;;;;;103771;1291;544986;-72
2023/09/08 16:59:31;;;;;;;34.00;21.20;;;;;;;;;;103595;1289;547806;-74
2023/09/08 17:03:03;;;;;;;34.60;21.40;;;;;;;;;;103714;1289;545052;-72
2023/09/08 17:06:37;;;;;;;34.10;20.70;;;;;;;;;;103818;1289;546163;-74
2023/09/08 17:10:20;;;;;;;24.40;15.30;;;;;;;;;;104169;1286;545454;-74
2023/09/08 17:14:03;;;;;;;21.00;12.70;;;;;;;;;;103661;1289;548107;-74
2023/09/08 17:17:34;;;;;;;28.50;16.80;;;;;;;;;;103479;1295;545381;-72
2023/09/08 17:21:08;;;;;;;21.90;14.30;;;;;;;;;;103936;1293;544879;-75
2023/09/08 17:24:51;;;;;;;16.30;11.00;;;;;;;;;;103746;1289;544989;-76
2023/09/08 17:28:27;;;;;;;16.20;10.10;;;;;;;;;;103828;1289;544803;-74
2023/09/08 17:32:05;;;;;;;13.00;7.90;;;;;;;;;;103956;1291;544985;-77
2023/09/08 17:35:42;;;;;;;12.60;6.70;;;;;;;;;;103718;1292;546602;-75
2023/09/08 17:39:20;;;;;;;12.70;6.20;;;;;;;;;;103847;1291;544988;-72
2023/09/08 17:43:03;;;;;;;9.50;6.00;;;;;;;;;;103971;1287;548094;-74
2023/09/08 17:46:35;;;;;;;11.60;6.00;;;;;;;;;;103904;1295;545156;-72
2023/09/08 17:50:12;;;;;;;14.10;6.20;;;;;;;;;;103502;1293;545178;-75
2023/09/08 17:53:50;;;;;;;12.60;6.10;;;;;;;;;;103697;1295;545633;-74
2023/09/08 17:57:27;;;;;;;14.40;5.90;;;;;;;;;;103823;1289;544821;-74
2023/09/08 18:01:05;;;;;;;12.50;6.30;;;;;;;;;;104405;1282;545945;-74
2023/09/08 18:05:02;;;;;;;13.00;8.30;;;;;;;;;;103627;1294;545576;-73
2023/09/08 18:08:20;;;;;;;14.20;8.60;;;;;;;;;;103616;1295;545544;-74
2023/09/08 18:12:17;;;;;;;14.50;9.70;;;;;;;;;;103640;1292;545397;-72
2023/09/08 18:15:35;;;;;;;15.20;11.60;;;;;;;;;;104062;1287;545141;-74
2023/09/08 18:19:12;;;;;;;16.50;11.80;;;;;;;;;;104290;1285;544833;-72
2023/09/08 18:22:55;;;;;;;17.90;13.20;;;;;;;;;;103602;1290;547796;-74
2023/09/08 18:26:28;;;;;;;18.10;13.70;;;;;;;;;;104108;1288;544807;-75
2023/09/08 18:30:01;;;;;;;18.50;14.30;;;;;;;;;;103814;1300;545426;-74
2023/09/08 18:33:44;;;;;;;18.20;12.70;;;;;;;;;;103795;1292;545130;-74
2023/09/08 18:37:22;;;;;;;19.10;12.50;;;;;;;;;;103736;1292;544858;-76
2023/09/08 18:41:04;;;;;;;16.70;12.60;;;;;;;;;;103589;1292;547783;-76
2023/09/08 18:44:41;;;;;;;18.00;12.40;;;;;;;;;;103725;1290;545190;-74
2023/09/08 18:48:14;;;;;;;17.00;12.10;;;;;;;;;;103750;1289;544784;-74
2023/09/08 18:51:52;;;;;;;17.10;10.90;;;;;;;;;;103600;1291;544924;-74
2023/09/08 18:55:29;;;;;;;17.10;9.90;;;;;;;;;;103635;1291;545708;-75
2023/09/08 18:59:12;;;;;;;16.40;9.80;;;;;;;;;;103663;1289;547934;-74
2023/09/08 19:02:49;;;;;;;17.00;9.80;;;;;;;;;;103637;1289;548498;-74
2023/09/08 19:06:21;;;;;;;15.70;9.00;;;;;;;;;;103735;1292;545073;-74
2023/09/08 19:09:58;;;;;;;15.20;9.80;;;;;;;;;;103720;1289;546327;-75
2023/09/08 19:13:42;;;;;;;13.40;7.80;;;;;;;;;;103647;1292;547777;-74
2023/09/08 19:17:13;;;;;;;14.70;8.40;;;;;;;;;;103743;1292;546317;-74
2023/09/08 19:20:51;;;;;;;14.20;8.00;;;;;;;;;;103524;1296;545587;-74
2023/09/08 19:24:30;;;;;;;12.90;8.20;;;;;;;;;;103721;1292;544974;-74
2023/09/08 19:28:07;;;;;;;12.50;8.70;;;;;;;;;;103690;1291;545867;-75
2023/09/08 19:31:43;;;;;;;15.20;9.00;;;;;;;;;;103821;1289;545091;-74
2023/09/08 19:35:22;;;;;;;15.80;9.20;;;;;;;;;;103742;1291;545142;-74
2023/09/08 19:38:59;;;;;;;14.80;9.00;;;;;;;;;;103736;1292;544996;-75
2023/09/08 19:42:37;;;;;;;16.50;9.20;;;;;;;;;;103699;1289;546178;-73
2023/09/08 19:46:13;;;;;;;16.00;8.90;;;;;;;;;;104010;1292;544973;-75
2023/09/08 19:49:51;;;;;;;13.80;8.10;;;;;;;;;;103905;1289;544953;-76
2023/09/08 19:53:29;;;;;;;13.30;8.20;;;;;;;;;;103750;1292;544837;-74
2023/09/08 19:57:06;;;;;;;13.40;7.50;;;;;;;;;;103894;1288;545314;-76
2023/09/08 20:00:43;;;;;;;13.60;8.10;;;;;;;;;;104030;1291;544844;-76
2023/09/08 20:04:21;;;;;;;13.80;8.10;;;;;;;;;;103721;1291;545939;-76
2023/09/08 20:08:03;;;;;;;13.10;6.90;;;;;;;;;;103775;1288;547810;-75
2023/09/08 20:11:36;;;;;;;14.80;8.50;;;;;;;;;;103638;1303;545436;-76
2023/09/08 20:15:13;;;;;;;14.80;8.50;;;;;;;;;;103798;1290;544918;-74
2023/09/08 20:18:51;;;;;;;14.30;8.40;;;;;;;;;;103725;1292;544931;-74
2023/09/08 20:22:33;;;;;;;21.20;10.30;;;;;;;;;;103715;1293;547792;-72
2023/09/08 20:26:05;;;;;;;20.90;8.60;;;;;;;;;;103734;1290;545047;-74
2023/09/08 20:29:52;;;;;;;19.30;9.40;;;;;;;;;;103615;1292;548140;-74
2023/09/08 20:33:20;;;;;;;18.60;10.20;;;;;;;;;;103980;1289;545247;-76
2023/09/08 20:36:54;;;;;;;17.30;10.20;;;;;;;;;;103774;1292;545106;-76
2023/09/08 20:40:37;;;;;;;18.30;9.80;;;;;;;;;;103769;1292;545050;-74
2023/09/08 20:44:14;;;;;;;17.90;8.80;;;;;;;;;;103760;1293;544898;-74